createdAt,value
2024-05-09T00:04:59.449Z,90.54
2024-05-09T00:20:41.880Z,92.65
2024-05-09T00:36:24.057Z,95.19
2024-05-09T00:52:06.253Z,97.43
2024-05-09T01:07:48.601Z,99.57
2024-05-09T01:23:30.722Z,100
2024-05-09T01:39:13.168Z,100
2024-05-09T01:54:55.805Z,100
2024-05-09T02:10:38.721Z,100
2024-05-09T02:26:20.881Z,100
2024-05-09T02:42:03.475Z,100
2024-05-09T02:57:45.659Z,100
2024-05-09T03:13:28.117Z,100
2024-05-09T03:29:10.991Z,100
2024-05-09T03:44:53.645Z,100
2024-05-09T04:00:36.071Z,100
2024-05-09T04:16:18.751Z,100
2024-05-09T04:32:01.112Z,100
2024-05-09T04:47:43.657Z,100
2024-05-09T05:03:26.539Z,100
2024-05-09T05:19:09.145Z,100
2024-05-09T05:34:51.566Z,98.51
2024-05-09T05:50:34.083Z,93.07
2024-05-09T06:06:16.654Z,88.48
2024-05-09T06:21:58.955Z,82.43
2024-05-09T06:37:41.169Z,78.67
2024-05-09T06:53:23.702Z,73.46
2024-05-09T07:09:06.065Z,70.1
2024-05-09T07:24:48.081Z,63.89
2024-05-09T07:40:30.637Z,59.59
2024-05-09T07:56:13.050Z,55.15
2024-05-09T08:11:55.569Z,51.64
2024-05-09T08:27:37.925Z,41.2
2024-05-09T08:43:20.048Z,32.22
2024-05-09T08:59:02.064Z,26.38
2024-05-09T09:14:44.009Z,25.85
2024-05-09T09:30:26.685Z,23.88
2024-05-09T09:46:09.408Z,22.28
2024-05-09T10:01:51.487Z,20.2
2024-05-09T10:17:33.327Z,21.51
2024-05-09T10:33:15.450Z,16.6
2024-05-09T10:48:58.140Z,16.27
2024-05-09T11:04:40.089Z,14.35
2024-05-09T11:20:22.186Z,12.8
2024-05-09T11:36:04.945Z,12.38
2024-05-09T11:51:46.876Z,12.44
2024-05-09T12:07:29.151Z,13.31
2024-05-09T12:23:11.287Z,13.39
2024-05-09T12:38:54.006Z,12.3
2024-05-09T12:54:35.920Z,12
2024-05-09T13:10:18.519Z,11.77
2024-05-09T13:26:00.468Z,12.04
2024-05-09T13:41:43.030Z,10.12
2024-05-09T13:57:25.347Z,11.09
2024-05-09T14:13:07.921Z,10.62
2024-05-09T14:28:50.277Z,11.43
2024-05-09T14:44:32.962Z,10.95
2024-05-09T15:00:14.815Z,11.16
2024-05-09T15:15:57.563Z,11.35
2024-05-09T15:31:40.180Z,11.9
2024-05-09T15:47:22.549Z,13.05
2024-05-09T16:03:04.795Z,14.24
2024-05-09T16:18:46.990Z,15.4
2024-05-09T16:34:28.939Z,17.26
2024-05-09T16:50:11.042Z,19.26
2024-05-09T17:05:53.382Z,22.2
2024-05-09T17:21:36.244Z,26.44
2024-05-09T17:37:19.110Z,28.75
2024-05-09T17:53:01.734Z,31.3
2024-05-09T18:08:44.412Z,32.67
2024-05-09T18:24:27.056Z,33.68
2024-05-09T18:40:10.000Z,35.67
2024-05-09T18:55:53.141Z,37.64
2024-05-09T19:11:35.959Z,39.8
2024-05-09T19:27:18.039Z,41.89
2024-05-09T19:43:00.282Z,44.78
2024-05-09T19:58:42.444Z,48.94
2024-05-09T19:59:29.764Z,49.03
2024-05-09T20:15:12.053Z,52.5
2024-05-09T20:30:54.706Z,55.77
2024-05-09T20:46:37.349Z,57.98
2024-05-09T21:02:19.895Z,59.55
2024-05-09T21:18:02.526Z,63.12
2024-05-09T21:33:45.585Z,66.57
2024-05-09T21:49:28.645Z,68.83
2024-05-09T22:05:11.014Z,72.59
2024-05-09T22:20:54.223Z,73.2
2024-05-09T22:36:36.954Z,75.03
2024-05-09T22:52:19.102Z,77.11
2024-05-09T23:08:01.262Z,79.32
2024-05-09T23:23:43.951Z,80.74
2024-05-09T23:39:27.081Z,82.12
2024-05-09T23:55:09.744Z,84.48
